Time;durP1;ratioP1;P1;durP2;ratioP2;P2;SDS_P1;SDS_P2;PMS_P1;PMS_P2;Temp;Humidity;BMP_temperature;BMP_pressure;BME280_temperature;BME280_humidity;BME280_pressure;Samples;Min_cycle;Max_cycle;Signal;HPM_P1;HPM_P2
2021/01/31 00:00:41;;;;;;;4.80;3.05;;;;;;;;;;5014149;28;20036;-72
2021/01/31 00:03:17;;;;;;;4.25;2.92;;;;;;;;;;5014167;28;20073;-72
2021/01/31 00:05:44;;;;;;;4.25;2.97;;;;;;;;;;4994210;28;20038;-72
2021/01/31 00:08:10;;;;;;;4.75;2.30;;;;;;;;;;5004262;28;20034;-72
2021/01/31 00:10:35;;;;;;;4.03;2.38;;;;;;;;;;4994841;28;20109;-72
2021/01/31 00:13:01;;;;;;;3.95;2.53;;;;;;;;;;5012261;28;20038;-72
2021/01/31 00:15:30;;;;;;;4.15;2.50;;;;;;;;;;4998122;28;20048;-72
2021/01/31 00:17:56;;;;;;;5.95;3.58;;;;;;;;;;5013688;28;20026;-72
2021/01/31 00:20:22;;;;;;;5.35;3.45;;;;;;;;;;5013626;28;20062;-72
2021/01/31 00:22:47;;;;;;;5.95;3.67;;;;;;;;;;4997809;28;20066;-72
2021/01/31 00:25:13;;;;;;;5.45;3.70;;;;;;;;;;5013680;28;20050;-72
2021/01/31 00:27:39;;;;;;;5.78;3.35;;;;;;;;;;4998397;28;20033;-72
2021/01/31 00:30:27;;;;;;;6.22;3.75;;;;;;;;;;4997685;28;20535;-72
2021/01/31 00:32:52;;;;;;;4.95;3.53;;;;;;;;;;5013458;28;20030;-72
2021/01/31 00:35:18;;;;;;;4.88;3.28;;;;;;;;;;5007557;28;20060;-72
2021/01/31 00:37:44;;;;;;;5.05;3.33;;;;;;;;;;5008416;28;20084;-72
2021/01/31 00:40:11;;;;;;;5.85;3.40;;;;;;;;;;4997235;28;20504;-72
2021/01/31 00:42:37;;;;;;;4.65;3.20;;;;;;;;;;5013574;28;20458;-72
2021/01/31 00:45:04;;;;;;;5.55;3.28;;;;;;;;;;5013467;28;20022;-73
2021/01/31 00:47:30;;;;;;;6.70;3.00;;;;;;;;;;4980861;28;20030;-72
2021/01/31 00:49:56;;;;;;;5.38;3.20;;;;;;;;;;4996320;28;20053;-72
2021/01/31 00:52:21;;;;;;;4.68;3.28;;;;;;;;;;5013198;28;20057;-72
2021/01/31 00:54:47;;;;;;;5.63;3.00;;;;;;;;;;5009535;28;20399;-72
2021/01/31 00:57:12;;;;;;;4.68;2.78;;;;;;;;;;5015917;28;20069;-72
2021/01/31 00:59:38;;;;;;;4.32;2.78;;;;;;;;;;5032760;28;20033;-72
2021/01/31 01:02:14;;;;;;;3.70;2.20;;;;;;;;;;5019056;28;20472;-72
2021/01/31 01:04:44;;;;;;;4.60;2.75;;;;;;;;;;4978942;28;20048;-72
2021/01/31 01:07:10;;;;;;;4.15;2.30;;;;;;;;;;4993272;28;20077;-72
2021/01/31 01:09:36;;;;;;;3.17;2.50;;;;;;;;;;4977057;28;20042;-72
2021/01/31 01:12:01;;;;;;;4.30;3.42;;;;;;;;;;4996752;28;20038;-72
2021/01/31 01:14:26;;;;;;;4.03;2.72;;;;;;;;;;5013070;28;20107;-71
2021/01/31 01:16:52;;;;;;;3.60;2.47;;;;;;;;;;4993018;28;20034;-72
2021/01/31 01:19:17;;;;;;;4.65;2.53;;;;;;;;;;4976757;28;20477;-72
2021/01/31 01:21:43;;;;;;;4.50;2.40;;;;;;;;;;4992871;28;20037;-72
2021/01/31 01:24:08;;;;;;;4.22;2.65;;;;;;;;;;4976724;28;20400;-72
2021/01/31 01:26:34;;;;;;;4.50;2.35;;;;;;;;;;4993022;28;20049;-72
2021/01/31 01:29:00;;;;;;;4.20;2.38;;;;;;;;;;4997912;28;20041;-72
2021/01/31 01:31:26;;;;;;;4.18;2.08;;;;;;;;;;4996577;28;20025;-72
2021/01/31 01:33:52;;;;;;;4.80;2.20;;;;;;;;;;5012004;28;20435;-72
2021/01/31 01:36:18;;;;;;;3.65;2.05;;;;;;;;;;4995990;28;20030;-72
2021/01/31 01:38:43;;;;;;;2.53;1.70;;;;;;;;;;4996080;28;20045;-71
2021/01/31 01:41:09;;;;;;;3.30;1.95;;;;;;;;;;4996258;28;20112;-72
2021/01/31 01:43:34;;;;;;;3.72;2.35;;;;;;;;;;4996155;28;20112;-72
2021/01/31 01:46:25;;;;;;;3.50;1.92;;;;;;;;;;5012172;28;20369;-72
2021/01/31 01:49:02;;;;;;;3.33;1.83;;;;;;;;;;4996158;28;20494;-72
2021/01/31 01:51:38;;;;;;;3.08;1.80;;;;;;;;;;4980680;28;20042;-72
2021/01/31 01:54:03;;;;;;;3.60;1.90;;;;;;;;;;4996195;28;20113;-72
2021/01/31 01:56:33;;;;;;;2.72;1.73;;;;;;;;;;4991238;28;20038;-72
2021/01/31 01:58:59;;;;;;;3.33;2.10;;;;;;;;;;4979714;28;20069;-72
2021/01/31 02:01:24;;;;;;;3.05;1.80;;;;;;;;;;4995562;28;20396;-72
2021/01/31 02:03:52;;;;;;;3.55;2.58;;;;;;;;;;4995146;28;20369;-72
2021/01/31 02:06:20;;;;;;;2.75;1.50;;;;;;;;;;5012090;28;20387;-72
2021/01/31 02:08:46;;;;;;;3.13;2.17;;;;;;;;;;4992193;28;20038;-72
2021/01/31 02:11:15;;;;;;;3.72;1.70;;;;;;;;;;4995244;28;20034;-72
2021/01/31 02:13:42;;;;;;;3.60;1.63;;;;;;;;;;5013049;28;20566;-72
2021/01/31 02:16:22;;;;;;;2.70;1.45;;;;;;;;;;5011236;28;20042;-72
2021/01/31 02:19:00;;;;;;;2.42;1.50;;;;;;;;;;4996024;28;20455;-72
2021/01/31 02:21:45;;;;;;;3.03;1.52;;;;;;;;;;5011634;28;20049;-72
2021/01/31 02:24:29;;;;;;;3.25;1.83;;;;;;;;;;5011143;28;20033;-72
2021/01/31 02:27:04;;;;;;;2.90;1.60;;;;;;;;;;5013595;28;20069;-72
2021/01/31 02:30:17;;;;;;;3.50;1.55;;;;;;;;;;5011768;28;20104;-72
2021/01/31 02:33:12;;;;;;;;;;;;;;;;;;4998040;28;20030;-72
2021/01/31 02:35:37;;;;;;;3.05;1.60;;;;;;;;;;5009373;28;19944;-72
2021/01/31 02:38:12;;;;;;;2.83;1.50;;;;;;;;;;5000901;28;20031;-72
2021/01/31 02:40:56;;;;;;;2.58;1.45;;;;;;;;;;4995036;28;20084;-72
2021/01/31 02:43:41;;;;;;;2.90;1.50;;;;;;;;;;4996306;28;20125;-72
2021/01/31 02:46:28;;;;;;;2.63;1.27;;;;;;;;;;4995076;28;20048;-72
2021/01/31 02:49:03;;;;;;;2.40;1.33;;;;;;;;;;4979774;28;20029;-72
2021/01/31 02:51:54;;;;;;;2.67;1.13;;;;;;;;;;5008603;28;20144;-72
2021/01/31 02:54:44;;;;;;;2.63;1.40;;;;;;;;;;5010239;28;20037;-72
2021/01/31 02:57:12;;;;;;;3.03;1.30;;;;;;;;;;5010723;28;20475;-72
2021/01/31 03:00:06;;;;;;;2.10;1.10;;;;;;;;;;4994315;28;20034;-72
2021/01/31 03:02:35;;;;;;;1.92;1.30;;;;;;;;;;5011354;28;20042;-72
2021/01/31 03:05:09;;;;;;;2.55;1.35;;;;;;;;;;5008314;28;20037;-72
2021/01/31 03:07:36;;;;;;;1.92;1.00;;;;;;;;;;4993325;28;20033;-72
2021/01/31 03:10:09;;;;;;;3.58;1.15;;;;;;;;;;4990748;28;20611;-72
2021/01/31 03:12:36;;;;;;;3.25;1.10;;;;;;;;;;4991009;28;20069;-72
2021/01/31 03:15:09;;;;;;;1.92;1.10;;;;;;;;;;5011384;28;20046;-72
2021/01/31 03:17:39;;;;;;;3.70;1.30;;;;;;;;;;4994504;28;20044;-71
2021/01/31 03:20:05;;;;;;;1.95;1.25;;;;;;;;;;5010269;28;20507;-71
2021/01/31 03:22:37;;;;;;;1.73;1.17;;;;;;;;;;5012305;28;20077;-71
2021/01/31 03:25:04;;;;;;;;;;;;;;;;;;5011136;28;20488;-72
2021/01/31 03:27:35;;;;;;;2.17;1.30;;;;;;;;;;5010938;28;19975;-72
2021/01/31 03:30:00;;;;;;;2.55;1.23;;;;;;;;;;4993525;28;20495;-72
2021/01/31 03:32:28;;;;;;;2.47;1.40;;;;;;;;;;5010579;28;20037;-72
2021/01/31 03:34:59;;;;;;;1.73;1.00;;;;;;;;;;5010435;28;20045;-72
2021/01/31 03:37:32;;;;;;;2.40;1.50;;;;;;;;;;4993717;28;20038;-72
2021/01/31 03:39:57;;;;;;;2.72;1.20;;;;;;;;;;4974963;28;20508;-72
2021/01/31 03:42:23;;;;;;;1.52;0.80;;;;;;;;;;4991117;28;20035;-72
2021/01/31 03:44:49;;;;;;;2.00;1.05;;;;;;;;;;4988170;28;20039;-72
2021/01/31 03:47:22;;;;;;;1.80;0.90;;;;;;;;;;4994136;28;20484;-71
2021/01/31 03:49:56;;;;;;;2.33;1.23;;;;;;;;;;4993669;28;20045;-72
2021/01/31 03:52:23;;;;;;;1.83;1.02;;;;;;;;;;5010694;28;20050;-72
2021/01/31 03:54:49;;;;;;;2.25;1.20;;;;;;;;;;5011623;28;20041;-72
2021/01/31 03:57:20;;;;;;;1.60;1.13;;;;;;;;;;4994419;28;20092;-72
2021/01/31 03:59:55;;;;;;;2.47;1.48;;;;;;;;;;5009886;28;20033;-72
2021/01/31 04:02:26;;;;;;;1.92;1.08;;;;;;;;;;5014087;28;20079;-71
2021/01/31 04:04:52;;;;;;;2.08;1.00;;;;;;;;;;5010622;28;20056;-71
2021/01/31 04:07:23;;;;;;;2.53;1.30;;;;;;;;;;5030070;28;20029;-71
2021/01/31 04:09:49;;;;;;;2.88;1.13;;;;;;;;;;5013969;28;20064;-71
2021/01/31 04:12:16;;;;;;;1.85;1.08;;;;;;;;;;5002029;28;20092;-72
2021/01/31 04:14:48;;;;;;;2.03;0.98;;;;;;;;;;5010607;28;20116;-72
2021/01/31 04:17:14;;;;;;;1.20;0.90;;;;;;;;;;4994144;28;20044;-72
2021/01/31 04:19:40;;;;;;;1.70;1.02;;;;;;;;;;5009779;28;20269;-72
2021/01/31 04:22:06;;;;;;;1.80;0.90;;;;;;;;;;4993884;28;20036;-71
2021/01/31 04:24:31;;;;;;;2.00;1.10;;;;;;;;;;5010025;28;20121;-72
2021/01/31 04:26:57;;;;;;;1.42;0.70;;;;;;;;;;5009520;28;20410;-72
2021/01/31 04:29:22;;;;;;;1.63;0.82;;;;;;;;;;5029685;28;20033;-72
2021/01/31 04:31:48;;;;;;;1.70;0.85;;;;;;;;;;5003488;28;20443;-72
2021/01/31 04:34:13;;;;;;;2.22;1.13;;;;;;;;;;4990133;28;20373;-72
2021/01/31 04:36:38;;;;;;;1.52;0.88;;;;;;;;;;4991358;28;20440;-72
2021/01/31 04:39:04;;;;;;;1.27;0.70;;;;;;;;;;4992500;28;20038;-72
2021/01/31 04:41:36;;;;;;;1.92;1.10;;;;;;;;;;4994104;28;20358;-72
2021/01/31 04:44:02;;;;;;;1.60;0.90;;;;;;;;;;4996768;28;20034;-72
2021/01/31 04:46:56;;;;;;;1.85;0.90;;;;;;;;;;4993870;28;20066;-72
2021/01/31 04:49:43;;;;;;;1.55;0.90;;;;;;;;;;4993061;28;20043;-71
2021/01/31 04:52:47;;;;;;;1.80;0.90;;;;;;;;;;5020118;28;20030;-72
2021/01/31 04:55:34;;;;;;;1.50;0.93;;;;;;;;;;5014247;28;20038;-72
2021/01/31 04:58:15;;;;;;;1.73;1.20;;;;;;;;;;5016584;28;20046;-72
2021/01/31 05:00:48;;;;;;;2.28;1.02;;;;;;;;;;5032848;28;20064;-71
2021/01/31 05:03:13;;;;;;;1.30;0.77;;;;;;;;;;5015053;28;20037;-71
2021/01/31 05:05:40;;;;;;;1.58;0.63;;;;;;;;;;5012920;28;20041;-72
2021/01/31 05:08:07;;;;;;;1.00;0.70;;;;;;;;;;4997102;28;20045;-71
2021/01/31 05:10:33;;;;;;;1.73;0.65;;;;;;;;;;4997041;28;20034;-71
2021/01/31 05:13:16;;;;;;;1.50;0.82;;;;;;;;;;5012838;28;20040;-71
2021/01/31 05:15:58;;;;;;;2.03;0.90;;;;;;;;;;5014088;28;20038;-72
2021/01/31 05:18:24;;;;;;;2.10;1.20;;;;;;;;;;4997348;28;20038;-72
2021/01/31 05:20:50;;;;;;;1.48;0.90;;;;;;;;;;4997586;28;20079;-72
2021/01/31 05:23:17;;;;;;;1.33;0.80;;;;;;;;;;4996696;28;20065;-72
2021/01/31 05:25:42;;;;;;;1.83;0.88;;;;;;;;;;5020125;28;20499;-72
2021/01/31 05:28:08;;;;;;;1.33;0.70;;;;;;;;;;4999711;28;20077;-72
2021/01/31 05:30:35;;;;;;;1.30;0.60;;;;;;;;;;5016407;28;20080;-71
2021/01/31 05:33:08;;;;;;;1.30;0.98;;;;;;;;;;4980084;28;20604;-71
2021/01/31 05:35:53;;;;;;;1.48;0.80;;;;;;;;;;4993330;28;20423;-72
2021/01/31 05:38:38;;;;;;;1.10;0.60;;;;;;;;;;5012550;28;20504;-71
2021/01/31 05:41:42;;;;;;;1.05;0.65;;;;;;;;;;5012510;28;20045;-71
2021/01/31 05:44:14;;;;;;;1.45;0.82;;;;;;;;;;5012790;28;20069;-72
2021/01/31 05:46:49;;;;;;;1.88;0.85;;;;;;;;;;5012359;28;20037;-71
2021/01/31 05:49:34;;;;;;;1.20;0.90;;;;;;;;;;4995946;28;20482;-72
2021/01/31 05:52:00;;;;;;;1.52;1.00;;;;;;;;;;5012261;28;20037;-72
2021/01/31 05:54:36;;;;;;;1.58;0.90;;;;;;;;;;5028988;28;20041;-71
2021/01/31 05:57:01;;;;;;;1.80;0.88;;;;;;;;;;5031767;28;20033;-71
2021/01/31 05:59:40;;;;;;;1.38;0.90;;;;;;;;;;5015562;28;20107;-71
2021/01/31 06:02:05;;;;;;;1.40;0.80;;;;;;;;;;5015208;28;20105;-72
2021/01/31 06:04:31;;;;;;;1.65;0.80;;;;;;;;;;5019649;28;20129;-71
2021/01/31 06:07:11;;;;;;;1.15;0.70;;;;;;;;;;4995723;28;20387;-72
2021/01/31 06:09:47;;;;;;;1.73;1.00;;;;;;;;;;4995710;28;20037;-72
2021/01/31 06:12:15;;;;;;;1.00;0.60;;;;;;;;;;4996833;28;20366;-72
2021/01/31 06:14:41;;;;;;;1.60;0.68;;;;;;;;;;4995796;28;20038;-71
2021/01/31 06:17:15;;;;;;;1.38;0.73;;;;;;;;;;4992351;28;20085;-71
2021/01/31 06:19:40;;;;;;;1.67;0.88;;;;;;;;;;4992066;28;20030;-72
2021/01/31 06:22:06;;;;;;;1.35;1.05;;;;;;;;;;5008449;28;20036;-71
2021/01/31 06:24:34;;;;;;;0.90;0.50;;;;;;;;;;5014950;28;20046;-71
2021/01/31 06:27:00;;;;;;;1.95;1.15;;;;;;;;;;5012551;28;20121;-72
2021/01/31 06:29:44;;;;;;;1.10;0.60;;;;;;;;;;4979056;28;20120;-71
2021/01/31 06:32:13;;;;;;;2.10;0.90;;;;;;;;;;5012746;28;20040;-72
2021/01/31 06:34:44;;;;;;;1.65;0.80;;;;;;;;;;4995323;28;20030;-72
2021/01/31 06:37:23;;;;;;;1.45;0.80;;;;;;;;;;5011041;28;20088;-71
2021/01/31 06:40:49;;;;;;;1.42;0.88;;;;;;;;;;5011322;28;20084;-71
2021/01/31 06:43:43;;;;;;;1.42;1.10;;;;;;;;;;4952001;29;20039;-71
2021/01/31 06:46:24;;;;;;;1.10;0.70;;;;;;;;;;4938610;29;20054;-71
2021/01/31 06:49:10;;;;;;;1.70;0.90;;;;;;;;;;4990993;28;20167;-72
2021/01/31 06:51:35;;;;;;;1.30;0.80;;;;;;;;;;5011436;28;20560;-72
2021/01/31 06:54:28;;;;;;;1.50;0.80;;;;;;;;;;5010834;28;20169;-72
2021/01/31 06:57:00;;;;;;;1.92;1.00;;;;;;;;;;5012276;28;20100;-71
2021/01/31 06:59:56;;;;;;;1.58;1.17;;;;;;;;;;5012589;28;20100;-71
2021/01/31 07:03:01;;;;;;;1.55;0.90;;;;;;;;;;5010009;28;20056;-71
2021/01/31 07:05:31;;;;;;;2.22;1.00;;;;;;;;;;4987751;28;20506;-71
2021/01/31 07:08:44;;;;;;;1.45;1.05;;;;;;;;;;5007669;28;20038;-71
2021/01/31 07:11:16;;;;;;;1.70;0.90;;;;;;;;;;4987018;28;20129;-72
2021/01/31 07:14:06;;;;;;;1.20;0.73;;;;;;;;;;4984183;28;20509;-72
2021/01/31 07:16:37;;;;;;;1.13;0.80;;;;;;;;;;5004678;28;20046;-72
2021/01/31 07:19:07;;;;;;;1.10;0.70;;;;;;;;;;4999947;28;20392;-72
2021/01/31 07:22:18;;;;;;;1.77;0.90;;;;;;;;;;5008478;28;20065;-74
2021/01/31 07:24:46;;;;;;;1.98;0.98;;;;;;;;;;5004885;28;20129;-72
2021/01/31 07:27:48;;;;;;;2.13;0.98;;;;;;;;;;4991731;28;20042;-72
2021/01/31 07:30:24;;;;;;;1.70;0.93;;;;;;;;;;4967178;28;20040;-72
2021/01/31 07:33:02;;;;;;;1.55;1.00;;;;;;;;;;4994137;28;20041;-72
2021/01/31 07:35:35;;;;;;;1.73;0.82;;;;;;;;;;5011313;28;20054;-71
2021/01/31 07:38:15;;;;;;;1.80;0.98;;;;;;;;;;4990606;28;20559;-72
2021/01/31 07:40:40;;;;;;;2.60;0.93;;;;;;;;;;4991085;28;20384;-72
2021/01/31 07:43:06;;;;;;;1.20;0.70;;;;;;;;;;4991255;28;20030;-72
2021/01/31 07:45:31;;;;;;;2.35;0.80;;;;;;;;;;4978135;28;20062;-71
2021/01/31 07:48:50;;;;;;;2.78;0.82;;;;;;;;;;5010210;28;20420;-72
2021/01/31 07:51:38;;;;;;;1.70;1.00;;;;;;;;;;4999211;28;20089;-72
2021/01/31 07:54:23;;;;;;;1.67;0.90;;;;;;;;;;4996566;28;20038;-71
2021/01/31 07:56:49;;;;;;;2.05;1.23;;;;;;;;;;5010417;28;20034;-72
2021/01/31 07:59:14;;;;;;;2.05;0.60;;;;;;;;;;5010284;28;20480;-71
2021/01/31 08:01:40;;;;;;;3.10;0.70;;;;;;;;;;5001460;28;20619;-71
2021/01/31 08:04:18;;;;;;;1.65;0.80;;;;;;;;;;5007865;28;20038;-71
2021/01/31 08:06:57;;;;;;;1.58;0.90;;;;;;;;;;5010336;28;20048;-71
2021/01/31 08:09:26;;;;;;;1.48;0.82;;;;;;;;;;4995083;28;20038;-72
2021/01/31 08:11:57;;;;;;;1.85;1.17;;;;;;;;;;5011287;28;20026;-71
2021/01/31 08:15:00;;;;;;;1.77;0.90;;;;;;;;;;5014078;28;20063;-71
2021/01/31 08:17:45;;;;;;;3.15;1.10;;;;;;;;;;5014551;28;20080;-71
2021/01/31 08:20:16;;;;;;;2.25;1.45;;;;;;;;;;4982221;28;20054;-71
2021/01/31 08:22:42;;;;;;;1.40;0.80;;;;;;;;;;4995642;28;20042;-71
2021/01/31 08:25:07;;;;;;;1.48;0.73;;;;;;;;;;4977827;28;20374;-71
2021/01/31 08:27:41;;;;;;;2.20;1.30;;;;;;;;;;4994398;28;20438;-71
2021/01/31 08:30:32;;;;;;;1.70;0.95;;;;;;;;;;4995246;28;20045;-71
2021/01/31 08:33:06;;;;;;;2.25;0.70;;;;;;;;;;4994844;28;20031;-71
2021/01/31 08:35:43;;;;;;;2.53;0.65;;;;;;;;;;4993850;28;20381;-71
2021/01/31 08:38:33;;;;;;;1.33;0.70;;;;;;;;;;5006119;28;20034;-71
2021/01/31 08:41:04;;;;;;;1.67;0.82;;;;;;;;;;5014918;28;20030;-72
2021/01/31 08:43:41;;;;;;;3.22;0.95;;;;;;;;;;5014850;28;20030;-72
2021/01/31 08:46:11;;;;;;;4.70;1.30;;;;;;;;;;4994216;28;20435;-72
2021/01/31 08:48:37;;;;;;;5.93;1.83;;;;;;;;;;5001152;28;20045;-72
2021/01/31 08:51:07;;;;;;;4.95;2.08;;;;;;;;;;5013047;28;20045;-72
2021/01/31 08:53:35;;;;;;;3.40;1.90;;;;;;;;;;4996916;28;20099;-72
2021/01/31 08:56:24;;;;;;;2.50;1.42;;;;;;;;;;5014425;28;20044;-72
2021/01/31 08:58:49;;;;;;;3.67;1.65;;;;;;;;;;4998203;28;20029;-72
2021/01/31 09:01:15;;;;;;;5.00;1.33;;;;;;;;;;5004667;28;20051;-72
2021/01/31 09:03:43;;;;;;;5.88;1.20;;;;;;;;;;5010923;28;20550;-72
2021/01/31 09:06:09;;;;;;;3.75;1.25;;;;;;;;;;4981125;28;20033;-72
2021/01/31 09:08:35;;;;;;;3.97;1.20;;;;;;;;;;4996840;28;20388;-72
2021/01/31 09:11:05;;;;;;;5.35;1.20;;;;;;;;;;4996469;28;20502;-72
2021/01/31 09:13:31;;;;;;;3.42;1.10;;;;;;;;;;5014312;28;20034;-72
2021/01/31 09:16:25;;;;;;;77.18;61.75;;;;;;;;;;5012348;28;20044;-72
2021/01/31 09:19:06;;;;;;;51.88;45.00;;;;;;;;;;5012769;28;20504;-72
2021/01/31 09:21:32;;;;;;;53.75;43.33;;;;;;;;;;4996817;28;20045;-72
2021/01/31 09:24:05;;;;;;;53.90;44.40;;;;;;;;;;4995492;28;20037;-72
2021/01/31 09:26:31;;;;;;;50.75;41.63;;;;;;;;;;4996878;28;20037;-72
2021/01/31 09:28:57;;;;;;;48.35;39.75;;;;;;;;;;4996303;28;20096;-72
2021/01/31 09:31:22;;;;;;;45.05;36.55;;;;;;;;;;4996342;28;20137;-72
2021/01/31 09:33:53;;;;;;;43.60;36.75;;;;;;;;;;4995944;28;20559;-72
2021/01/31 09:36:24;;;;;;;45.38;36.30;;;;;;;;;;5013498;28;20037;-72
2021/01/31 09:38:50;;;;;;;39.77;33.20;;;;;;;;;;5012194;28;20496;-72
2021/01/31 09:41:18;;;;;;;41.20;34.65;;;;;;;;;;4993075;28;20277;-72
2021/01/31 09:43:44;;;;;;;39.72;33.83;;;;;;;;;;4989455;28;20135;-72
2021/01/31 09:46:12;;;;;;;34.97;31.13;;;;;;;;;;4995675;28;20030;-72
2021/01/31 09:48:37;;;;;;;36.47;30.33;;;;;;;;;;4996235;28;20038;-72
2021/01/31 09:51:04;;;;;;;39.88;30.75;;;;;;;;;;4996088;28;20108;-72
2021/01/31 09:53:40;;;;;;;32.53;27.30;;;;;;;;;;4979668;28;20053;-72
2021/01/31 09:56:06;;;;;;;36.00;28.58;;;;;;;;;;4983201;28;20042;-72
2021/01/31 09:58:40;;;;;;;32.85;27.33;;;;;;;;;;4992466;28;20030;-72
2021/01/31 10:01:08;;;;;;;31.30;25.80;;;;;;;;;;4999543;28;20033;-72
2021/01/31 10:03:33;;;;;;;31.98;24.83;;;;;;;;;;4995346;28;20472;-72
2021/01/31 10:06:12;;;;;;;29.80;25.10;;;;;;;;;;5017015;28;20104;-73
2021/01/31 10:08:47;;;;;;;29.77;24.83;;;;;;;;;;5031627;28;20052;-71
2021/01/31 10:11:32;;;;;;;30.88;23.90;;;;;;;;;;5022513;28;20088;-71
2021/01/31 10:13:58;;;;;;;29.25;23.38;;;;;;;;;;5027584;28;20037;-71
2021/01/31 10:16:31;;;;;;;29.27;22.95;;;;;;;;;;5015342;28;20031;-71
2021/01/31 10:19:14;;;;;;;30.23;22.52;;;;;;;;;;5001849;28;20053;-71
2021/01/31 10:21:55;;;;;;;25.00;19.98;;;;;;;;;;5002393;28;20037;-71
2021/01/31 10:24:30;;;;;;;23.00;18.60;;;;;;;;;;5011725;28;20464;-71
2021/01/31 10:27:22;;;;;;;24.95;19.85;;;;;;;;;;4995254;28;20030;-71
2021/01/31 10:29:47;;;;;;;22.30;16.37;;;;;;;;;;5011360;28;20041;-71
2021/01/31 10:32:17;;;;;;;19.80;16.02;;;;;;;;;;5010977;28;20275;-71
2021/01/31 10:34:43;;;;;;;20.48;15.95;;;;;;;;;;5006918;28;20044;-71
2021/01/31 10:37:12;;;;;;;21.13;15.40;;;;;;;;;;4994526;28;20026;-71
2021/01/31 10:39:37;;;;;;;19.98;13.60;;;;;;;;;;5012447;28;20040;-71
2021/01/31 10:42:03;;;;;;;16.48;13.23;;;;;;;;;;5012628;28;20038;-71
2021/01/31 10:44:32;;;;;;;15.82;12.15;;;;;;;;;;5011044;28;20026;-71
2021/01/31 10:46:57;;;;;;;14.65;12.00;;;;;;;;;;5011887;28;20045;-71
2021/01/31 10:49:23;;;;;;;17.10;11.52;;;;;;;;;;5013820;28;20116;-71
2021/01/31 10:51:48;;;;;;;13.82;11.30;;;;;;;;;;4996319;28;20473;-71
2021/01/31 10:54:15;;;;;;;13.90;10.60;;;;;;;;;;5011179;28;20037;-71
2021/01/31 10:56:43;;;;;;;13.73;10.98;;;;;;;;;;4995013;28;20034;-71
2021/01/31 10:59:09;;;;;;;11.82;9.57;;;;;;;;;;5010654;28;20033;-71
2021/01/31 11:01:34;;;;;;;14.23;9.18;;;;;;;;;;5015259;28;20044;-72
2021/01/31 11:04:00;;;;;;;11.95;9.13;;;;;;;;;;4993976;28;20033;-71
2021/01/31 11:06:27;;;;;;;11.80;8.80;;;;;;;;;;5012656;28;20045;-71
2021/01/31 11:08:52;;;;;;;11.85;8.60;;;;;;;;;;5011904;28;20044;-71
2021/01/31 11:11:18;;;;;;;10.13;8.73;;;;;;;;;;5012417;28;20034;-71
2021/01/31 11:13:44;;;;;;;13.05;8.45;;;;;;;;;;5010486;28;20030;-71
2021/01/31 11:16:09;;;;;;;15.43;8.45;;;;;;;;;;5012495;28;20033;-71
2021/01/31 11:18:34;;;;;;;9.68;7.20;;;;;;;;;;5011749;28;20543;-71
2021/01/31 11:21:00;;;;;;;9.30;7.15;;;;;;;;;;5012003;28;20045;-71
2021/01/31 11:23:25;;;;;;;10.27;7.65;;;;;;;;;;5011593;28;20041;-71
2021/01/31 11:25:51;;;;;;;10.95;6.80;;;;;;;;;;5010669;28;20034;-71
2021/01/31 11:28:17;;;;;;;11.70;6.68;;;;;;;;;;5004621;28;20031;-71
2021/01/31 11:30:43;;;;;;;9.68;6.97;;;;;;;;;;4994566;28;20061;-71
2021/01/31 11:33:08;;;;;;;7.63;6.00;;;;;;;;;;5010042;28;20480;-72
2021/01/31 11:35:34;;;;;;;9.90;6.00;;;;;;;;;;4993817;28;20069;-72
2021/01/31 11:37:59;;;;;;;8.20;5.82;;;;;;;;;;5011728;28;20490;-71
2021/01/31 11:40:25;;;;;;;12.32;6.70;;;;;;;;;;4995012;28;20108;-71
2021/01/31 11:42:50;;;;;;;12.13;6.85;;;;;;;;;;4991795;28;20038;-71
2021/01/31 11:45:16;;;;;;;9.13;6.13;;;;;;;;;;4986123;28;20112;-72
2021/01/31 11:47:42;;;;;;;9.93;5.85;;;;;;;;;;5014823;28;20111;-73
2021/01/31 11:50:08;;;;;;;11.88;6.80;;;;;;;;;;5033917;28;20410;-73
2021/01/31 11:52:33;;;;;;;8.93;5.63;;;;;;;;;;5007776;28;20428;-73
2021/01/31 11:54:59;;;;;;;9.18;5.85;;;;;;;;;;4997846;28;20053;-73
2021/01/31 11:57:24;;;;;;;8.23;5.60;;;;;;;;;;5022208;28;20068;-73
2021/01/31 11:59:52;;;;;;;8.25;5.50;;;;;;;;;;5017486;28;20042;-73
2021/01/31 12:02:18;;;;;;;9.50;5.20;;;;;;;;;;5033778;28;20033;-73
2021/01/31 12:04:43;;;;;;;5.55;4.72;;;;;;;;;;5003754;28;20598;-74
2021/01/31 12:07:09;;;;;;;8.10;5.03;;;;;;;;;;4982009;28;20484;-73
2021/01/31 12:09:35;;;;;;;8.02;4.68;;;;;;;;;;5014264;28;20060;-74
2021/01/31 12:12:00;;;;;;;6.47;4.35;;;;;;;;;;4997831;28;20050;-73
2021/01/31 12:14:26;;;;;;;8.82;5.70;;;;;;;;;;5014077;28;20064;-73
2021/01/31 12:16:51;;;;;;;8.60;4.78;;;;;;;;;;4998288;28;20057;-73
2021/01/31 12:19:17;;;;;;;8.35;4.45;;;;;;;;;;5013561;28;20474;-73
2021/01/31 12:21:42;;;;;;;7.25;4.65;;;;;;;;;;5012666;28;20068;-73
2021/01/31 12:24:08;;;;;;;8.68;5.30;;;;;;;;;;4993377;28;20073;-73
2021/01/31 12:26:33;;;;;;;7.93;4.82;;;;;;;;;;4997347;28;20037;-73
2021/01/31 12:28:59;;;;;;;7.53;4.40;;;;;;;;;;4997279;28;20053;-73
2021/01/31 12:31:26;;;;;;;6.72;4.97;;;;;;;;;;4997163;28;20443;-73
2021/01/31 12:33:51;;;;;;;6.90;4.25;;;;;;;;;;4997430;28;20113;-73
2021/01/31 12:36:16;;;;;;;9.60;4.90;;;;;;;;;;5014451;28;20764;-73
2021/01/31 12:38:42;;;;;;;10.13;4.38;;;;;;;;;;4993817;28;20042;-73
2021/01/31 12:41:07;;;;;;;9.23;4.50;;;;;;;;;;4993650;28;20100;-73
2021/01/31 12:43:33;;;;;;;8.10;4.18;;;;;;;;;;4993925;28;20381;-73
2021/01/31 12:45:58;;;;;;;8.75;4.25;;;;;;;;;;5001926;28;20443;-73
2021/01/31 12:48:23;;;;;;;7.07;3.90;;;;;;;;;;5010119;28;20392;-73
2021/01/31 12:50:49;;;;;;;7.30;3.72;;;;;;;;;;5009959;28;20053;-73
2021/01/31 12:53:14;;;;;;;8.05;4.72;;;;;;;;;;5013042;28;20437;-73
2021/01/31 12:55:40;;;;;;;8.63;4.32;;;;;;;;;;4996840;28;20056;-73
2021/01/31 12:58:06;;;;;;;19.10;4.30;;;;;;;;;;5013155;28;20109;-73
2021/01/31 13:00:31;;;;;;;8.00;4.18;;;;;;;;;;4981045;28;20088;-73
2021/01/31 13:02:57;;;;;;;14.75;4.00;;;;;;;;;;5013719;28;20439;-72
2021/01/31 13:05:25;;;;;;;11.25;4.43;;;;;;;;;;5012981;28;20450;-72
2021/01/31 13:07:51;;;;;;;8.10;3.97;;;;;;;;;;4996907;28;20067;-72
2021/01/31 13:10:17;;;;;;;9.00;4.00;;;;;;;;;;5012886;28;20129;-72
2021/01/31 13:12:42;;;;;;;8.30;3.83;;;;;;;;;;5010835;28;20435;-72
2021/01/31 13:15:08;;;;;;;5.63;3.72;;;;;;;;;;5032943;28;20116;-72
2021/01/31 13:17:34;;;;;;;7.95;3.50;;;;;;;;;;5012308;28;20109;-72
2021/01/31 13:20:00;;;;;;;8.23;3.28;;;;;;;;;;5012829;28;20033;-72
2021/01/31 13:22:25;;;;;;;14.00;5.30;;;;;;;;;;4996505;28;20072;-72
2021/01/31 13:24:51;;;;;;;11.73;3.95;;;;;;;;;;5012789;28;20081;-76
2021/01/31 13:27:16;;;;;;;6.88;3.72;;;;;;;;;;4996586;28;20146;-72
2021/01/31 13:29:41;;;;;;;12.20;5.18;;;;;;;;;;5012593;28;20056;-72
2021/01/31 13:32:07;;;;;;;7.68;4.60;;;;;;;;;;5012551;28;20385;-73
2021/01/31 13:34:32;;;;;;;7.88;4.07;;;;;;;;;;4996332;28;20038;-72
2021/01/31 13:36:59;;;;;;;8.77;4.85;;;;;;;;;;4995913;28;20042;-72
2021/01/31 13:39:28;;;;;;;7.45;3.63;;;;;;;;;;4997448;28;20116;-72
2021/01/31 13:41:53;;;;;;;8.55;3.67;;;;;;;;;;5012458;28;20030;-72
2021/01/31 13:44:19;;;;;;;7.47;3.60;;;;;;;;;;4995903;28;20025;-73
2021/01/31 13:46:44;;;;;;;6.88;3.40;;;;;;;;;;5012299;28;20038;-73
2021/01/31 13:49:10;;;;;;;8.85;4.40;;;;;;;;;;5012378;28;20477;-72
2021/01/31 13:51:35;;;;;;;5.43;3.13;;;;;;;;;;5011714;28;20081;-71
2021/01/31 13:54:01;;;;;;;7.75;3.72;;;;;;;;;;5011854;28;20403;-71
2021/01/31 13:56:26;;;;;;;9.93;4.30;;;;;;;;;;4995662;28;20396;-72
2021/01/31 13:58:51;;;;;;;5.43;3.90;;;;;;;;;;5011885;28;20770;-72
2021/01/31 14:01:17;;;;;;;5.38;3.63;;;;;;;;;;4995599;28;20045;-72
2021/01/31 14:03:42;;;;;;;5.40;3.10;;;;;;;;;;5011727;28;20042;-72
2021/01/31 14:06:08;;;;;;;7.65;3.92;;;;;;;;;;5016607;28;20041;-71
2021/01/31 14:08:34;;;;;;;7.30;3.65;;;;;;;;;;4999321;28;20095;-72
2021/01/31 14:10:59;;;;;;;7.05;3.25;;;;;;;;;;5017223;28;20377;-71
2021/01/31 14:13:25;;;;;;;5.93;3.60;;;;;;;;;;4996405;28;20069;-72
2021/01/31 14:15:50;;;;;;;7.72;3.40;;;;;;;;;;5014973;28;20112;-72
2021/01/31 14:18:15;;;;;;;5.32;3.10;;;;;;;;;;5016641;28;20137;-72
2021/01/31 14:20:41;;;;;;;4.90;2.90;;;;;;;;;;4994879;28;20083;-72
2021/01/31 14:23:06;;;;;;;7.22;3.17;;;;;;;;;;5011408;28;20042;-72
2021/01/31 14:25:32;;;;;;;7.63;3.33;;;;;;;;;;5011657;28;20396;-72
2021/01/31 14:27:57;;;;;;;5.97;3.05;;;;;;;;;;4994871;28;20480;-72
2021/01/31 14:30:24;;;;;;;6.25;3.22;;;;;;;;;;4994830;28;20038;-72
2021/01/31 14:32:50;;;;;;;5.93;3.03;;;;;;;;;;5011550;28;20365;-72
2021/01/31 14:35:34;;;;;;;6.72;3.60;;;;;;;;;;4994961;28;20091;-72
2021/01/31 14:37:59;;;;;;;4.93;3.22;;;;;;;;;;4997218;28;20454;-72
2021/01/31 14:40:25;;;;;;;5.70;2.85;;;;;;;;;;4995572;28;20189;-72
2021/01/31 14:42:50;;;;;;;5.60;3.40;;;;;;;;;;5011459;28;20100;-72
2021/01/31 14:45:23;;;;;;;4.15;3.25;;;;;;;;;;4977073;28;20541;-72
2021/01/31 14:47:48;;;;;;;7.60;3.20;;;;;;;;;;5013165;28;20041;-72
2021/01/31 14:50:15;;;;;;;9.10;3.88;;;;;;;;;;5010788;28;20038;-72
2021/01/31 14:52:40;;;;;;;4.38;3.00;;;;;;;;;;4995310;28;20511;-72
2021/01/31 14:55:14;;;;;;;4.15;2.97;;;;;;;;;;4994706;28;20034;-72
2021/01/31 14:57:41;;;;;;;5.55;3.97;;;;;;;;;;5010554;28;20160;-72
2021/01/31 15:00:07;;;;;;;6.80;5.07;;;;;;;;;;5010991;28;20042;-72
2021/01/31 15:02:32;;;;;;;21.17;16.13;;;;;;;;;;4994038;28;20033;-72